Time;durP1;ratioP1;P1;durP2;ratioP2;P2;SDS_P1;SDS_P2;PMS_P1;PMS_P2;Temp;Humidity;BMP_temperature;BMP_pressure;BME280_temperature;BME280_humidity;BME280_pressure;Samples;Min_cycle;Max_cycle;Signal;HPM_P1;HPM_P2
2023/12/24 00:01:17;;;;;;;8.17;3.50;;;;;;;0.82;87.29;98592.75;4995180;28;20206;-61
2023/12/24 00:03:44;;;;;;;9.23;3.70;;;;;;;0.84;86.46;98593.59;4995189;28;20207;-62
2023/12/24 00:06:12;;;;;;;10.17;3.57;;;;;;;0.84;86.88;98596.97;4985656;28;20251;-62
2023/12/24 00:08:43;;;;;;;6.77;3.87;;;;;;;0.85;86.00;98592.78;4995336;28;20216;-61
2023/12/24 00:11:11;;;;;;;7.53;2.97;;;;;;;0.85;85.39;98603.75;4993595;28;20204;-62
2023/12/24 00:13:39;;;;;;;4.97;3.10;;;;;;;0.87;85.59;98594.47;4994972;28;20212;-61
2023/12/24 00:16:09;;;;;;;7.10;3.23;;;;;;;0.86;85.13;98600.38;4994877;28;20227;-63
2023/12/24 00:18:37;;;;;;;8.20;3.20;;;;;;;0.86;84.72;98605.44;4995160;28;20549;-63
2023/12/24 00:21:05;;;;;;;4.70;2.83;;;;;;;0.87;84.71;98608.81;4995047;28;20221;-62
2023/12/24 00:23:33;;;;;;;6.00;3.00;;;;;;;0.85;82.85;98623.19;4995111;28;20231;-61
2023/12/24 00:26:01;;;;;;;5.03;3.00;;;;;;;0.83;82.56;98623.19;4994870;28;20207;-62
2023/12/24 00:28:29;;;;;;;5.63;2.57;;;;;;;0.79;82.30;98639.22;4993657;28;20238;-60
2023/12/24 00:30:57;;;;;;;3.90;2.60;;;;;;;0.75;82.08;98640.03;4994986;28;20208;-61
2023/12/24 00:33:27;;;;;;;5.73;2.27;;;;;;;0.75;82.63;98651.88;4994951;28;20207;-63
2023/12/24 00:35:55;;;;;;;4.30;2.30;;;;;;;0.69;82.10;98647.63;4994516;28;20610;-62
2023/12/24 00:38:23;;;;;;;10.00;2.83;;;;;;;0.66;81.94;98647.59;4994514;28;20196;-62
2023/12/24 00:40:51;;;;;;;4.13;2.37;;;;;;;0.65;82.30;98656.88;4994674;28;20220;-61
2023/12/24 00:43:19;;;;;;;4.33;2.13;;;;;;;0.61;82.60;98651.78;4993034;28;20212;-61
2023/12/24 00:45:47;;;;;;;5.00;3.00;;;;;;;0.58;82.92;98662.75;4994683;28;20212;-61
2023/12/24 00:48:15;;;;;;;6.77;3.10;;;;;;;0.57;82.64;98667.81;4991180;28;20211;-62
2023/12/24 00:50:44;;;;;;;3.70;2.37;;;;;;;0.54;83.20;98663.56;4994298;28;20239;-61
2023/12/24 00:53:13;;;;;;;7.67;2.17;;;;;;;0.54;82.95;98667.81;4994426;28;20204;-63
2023/12/24 00:55:43;;;;;;;7.43;2.60;;;;;;;0.52;82.81;98675.41;4994345;28;20208;-62
2023/12/24 00:58:12;;;;;;;3.73;2.37;;;;;;;0.51;82.92;98668.63;4994199;28;20243;-61
2023/12/24 01:00:40;;;;;;;5.03;2.53;;;;;;;0.54;82.74;98677.94;4992891;28;20266;-62
2023/12/24 01:03:08;;;;;;;6.00;2.47;;;;;;;0.55;82.40;98689.75;4993250;28;20210;-62
2023/12/24 01:05:36;;;;;;;7.97;2.60;;;;;;;0.55;82.50;98692.28;4993924;28;20204;-64
2023/12/24 01:08:06;;;;;;;7.63;2.47;;;;;;;0.54;82.58;98690.63;4993857;28;20247;-62
2023/12/24 01:10:34;;;;;;;6.80;2.80;;;;;;;0.55;82.75;98699.91;4993754;28;20282;-62
2023/12/24 01:13:02;;;;;;;3.80;2.27;;;;;;;0.55;82.17;98704.97;4993726;28;20211;-62
2023/12/24 01:15:30;;;;;;;4.30;2.67;;;;;;;0.53;82.40;98707.50;4992487;28;20219;-62
2023/12/24 01:17:58;;;;;;;5.97;2.70;;;;;;;0.54;81.70;98703.28;4993863;28;20220;-61
2023/12/24 01:20:26;;;;;;;4.17;2.37;;;;;;;0.52;81.77;98710.88;4993987;28;20211;-62
2023/12/24 01:22:54;;;;;;;3.80;2.23;;;;;;;0.54;81.52;98713.41;4993599;28;20646;-63
2023/12/24 01:25:24;;;;;;;3.73;2.63;;;;;;;0.53;81.13;98712.56;4993596;28;20206;-61
2023/12/24 01:27:52;;;;;;;3.93;1.97;;;;;;;0.54;80.87;98723.56;4994117;28;20583;-61
2023/12/24 01:30:21;;;;;;;5.60;2.27;;;;;;;0.53;80.37;98721.88;4994116;28;20564;-60
2023/12/24 01:32:49;;;;;;;4.33;2.07;;;;;;;0.53;80.57;98720.19;4986513;28;20208;-61
2023/12/24 01:35:18;;;;;;;4.90;2.10;;;;;;;0.51;80.27;98723.53;4994170;28;20654;-62
2023/12/24 01:37:46;;;;;;;6.00;2.30;;;;;;;0.51;80.63;98721.00;4993755;28;20778;-63
2023/12/24 01:40:14;;;;;;;7.43;2.53;;;;;;;0.48;80.46;98732.81;4992066;28;20210;-60
2023/12/24 01:42:45;;;;;;;4.57;2.23;;;;;;;0.43;80.34;98731.91;4993721;28;20220;-62
2023/12/24 01:45:13;;;;;;;5.60;2.17;;;;;;;0.38;79.97;98728.50;4993434;28;20208;-59
2023/12/24 01:47:44;;;;;;;5.40;3.20;;;;;;;0.34;80.07;98752.13;4993362;28;20629;-60
2023/12/24 01:50:20;;;;;;;4.93;2.43;;;;;;;0.28;80.27;98741.94;4993747;28;20196;-61
2023/12/24 01:52:48;;;;;;;4.47;2.63;;;;;;;0.24;80.69;98751.19;4993753;28;20216;-61
2023/12/24 01:55:17;;;;;;;3.87;2.23;;;;;;;0.23;80.94;98758.78;4991927;28;20196;-63
2023/12/24 01:57:46;;;;;;;4.93;2.37;;;;;;;0.22;81.04;98764.66;4993346;28;20220;-63
2023/12/24 02:00:16;;;;;;;3.50;2.40;;;;;;;0.17;80.25;98756.19;4992867;28;20255;-63
2023/12/24 02:02:44;;;;;;;6.03;2.60;;;;;;;0.13;80.64;98757.00;4993105;28;20663;-64
2023/12/24 02:05:16;;;;;;;3.97;2.10;;;;;;;0.10;80.88;98764.56;4993082;28;20670;-61
2023/12/24 02:07:47;;;;;;;5.43;1.70;;;;;;;0.07;80.63;98765.38;4992768;28;20211;-61
2023/12/24 02:10:17;;;;;;;5.37;1.97;;;;;;;0.03;80.93;98770.41;4988641;28;20196;-62
2023/12/24 02:12:49;;;;;;;3.13;1.90;;;;;;;0.03;80.63;98780.53;4991294;28;20306;-62
2023/12/24 02:15:18;;;;;;;3.27;2.00;;;;;;;0.01;80.89;98787.28;4993032;28;20717;-62
2023/12/24 02:17:46;;;;;;;3.97;1.90;;;;;;;-0.02;81.03;98788.09;4992785;28;20323;-62
2023/12/24 02:20:19;;;;;;;4.97;2.17;;;;;;;-0.05;80.56;98788.88;4993015;28;20670;-61
2023/12/24 02:22:48;;;;;;;2.93;2.00;;;;;;;-0.06;81.02;98784.66;4992576;28;20286;-60
2023/12/24 02:25:19;;;;;;;4.30;2.27;;;;;;;-0.04;80.88;98785.53;4992795;28;20254;-62
2023/12/24 02:27:52;;;;;;;2.97;2.03;;;;;;;-0.05;80.58;98793.94;4991083;28;20208;-62
2023/12/24 02:30:24;;;;;;;2.13;1.57;;;;;;;-0.02;81.54;98791.47;4992784;28;20655;-62
2023/12/24 02:32:57;;;;;;;5.20;2.20;;;;;;;0.00;81.58;98796.56;4992770;28;21064;-61
2023/12/24 02:35:30;;;;;;;1.83;1.60;;;;;;;0.02;80.77;98799.09;4992745;28;20216;-61
2023/12/24 02:38:00;;;;;;;4.70;1.93;;;;;;;0.02;80.93;98804.16;4992674;28;20553;-64
2023/12/24 02:40:28;;;;;;;2.13;1.93;;;;;;;0.00;80.86;98806.69;4992653;28;20203;-63
2023/12/24 02:42:56;;;;;;;3.57;1.87;;;;;;;-0.02;81.04;98814.25;4992280;28;20637;-61
2023/12/24 02:45:24;;;;;;;2.60;1.83;;;;;;;-0.04;80.82;98815.94;4992485;28;20289;-62
2023/12/24 02:47:52;;;;;;;4.13;1.83;;;;;;;-0.08;81.07;98814.16;4992709;28;20655;-61
2023/12/24 02:50:20;;;;;;;5.20;2.20;;;;;;;-0.07;81.19;98820.94;4992493;28;20215;-60
2023/12/24 02:52:48;;;;;;;7.57;2.13;;;;;;;-0.08;81.22;98819.22;4992660;28;20285;-61
2023/12/24 02:55:18;;;;;;;4.60;1.77;;;;;;;-0.10;81.81;98820.91;4992345;28;20208;-62
2023/12/24 02:57:46;;;;;;;4.33;1.90;;;;;;;-0.12;81.69;98822.56;4992073;28;20686;-63
2023/12/24 03:00:14;;;;;;;2.90;2.10;;;;;;;-0.16;81.34;98814.94;4980364;28;20220;-65
2023/12/24 03:02:45;;;;;;;3.70;2.50;;;;;;;-0.21;81.57;98819.94;4982048;28;20212;-63
2023/12/24 03:05:13;;;;;;;4.53;2.00;;;;;;;-0.25;81.95;98826.66;4991840;28;20299;-61
2023/12/24 03:07:41;;;;;;;6.93;2.00;;;;;;;-0.25;82.08;98831.72;4992199;28;20208;-60
2023/12/24 03:10:09;;;;;;;3.47;2.10;;;;;;;-0.26;82.08;98835.09;4992271;28;20691;-63
2023/12/24 03:12:38;;;;;;;8.47;2.73;;;;;;;-0.30;82.43;98832.47;4992074;28;20211;-61
2023/12/24 03:15:07;;;;;;;6.07;2.13;;;;;;;-0.31;82.67;98831.63;4990462;28;20208;-65
2023/12/24 03:17:35;;;;;;;4.80;2.37;;;;;;;-0.33;83.04;98837.50;4991596;28;20228;-62
2023/12/24 03:20:03;;;;;;;4.87;2.57;;;;;;;-0.36;83.42;98832.41;4992126;28;20413;-62
2023/12/24 03:22:31;;;;;;;3.73;2.00;;;;;;;-0.36;83.22;98832.41;4991525;28;20236;-60
2023/12/24 03:25:00;;;;;;;9.23;2.10;;;;;;;-0.38;83.10;98831.53;4992150;28;20207;-61
2023/12/24 03:27:28;;;;;;;6.90;2.37;;;;;;;-0.40;83.93;98840.81;4995477;28;20240;-62
2023/12/24 03:29:56;;;;;;;4.60;2.70;;;;;;;-0.41;83.89;98849.19;4994726;28;20218;-59
2023/12/24 03:32:24;;;;;;;4.80;2.63;;;;;;;-0.43;84.16;98848.34;4987957;28;20251;-61
2023/12/24 03:34:52;;;;;;;6.40;2.77;;;;;;;-0.46;84.13;98848.31;4996091;28;20200;-61
2023/12/24 03:37:20;;;;;;;6.57;2.50;;;;;;;-0.49;85.02;98860.06;4995458;28;20223;-61
2023/12/24 03:39:48;;;;;;;8.43;2.30;;;;;;;-0.50;84.75;98860.91;4995984;28;20663;-62
2023/12/24 03:42:16;;;;;;;4.63;2.23;;;;;;;-0.49;85.16;98870.19;4995756;28;20232;-64
2023/12/24 03:44:44;;;;;;;5.07;2.43;;;;;;;-0.53;85.29;98865.91;4995730;28;20641;-62
2023/12/24 03:47:13;;;;;;;6.03;2.43;;;;;;;-0.53;85.55;98875.19;4994174;28;20212;-61
2023/12/24 03:49:41;;;;;;;4.83;2.27;;;;;;;-0.53;85.81;98881.09;4995441;28;20231;-62
2023/12/24 03:52:09;;;;;;;6.77;2.50;;;;;;;-0.53;85.96;98885.31;4995709;28;20331;-62
2023/12/24 03:54:37;;;;;;;6.00;2.20;;;;;;;-0.57;86.04;98883.56;4995634;28;20207;-62
2023/12/24 03:57:05;;;;;;;7.40;2.80;;;;;;;-0.61;86.71;98887.75;4995562;28;20647;-61
2023/12/24 03:59:33;;;;;;;4.87;2.23;;;;;;;-0.62;87.31;98895.31;4995181;28;20216;-63
2023/12/24 04:02:02;;;;;;;5.13;2.10;;;;;;;-0.64;87.38;98895.28;4995458;28;20746;-62
2023/12/24 04:04:32;;;;;;;6.60;2.67;;;;;;;-0.64;87.58;98895.28;4992396;28;20659;-63
2023/12/24 04:07:00;;;;;;;4.63;2.30;;;;;;;-0.66;87.85;98898.59;4994894;28;20210;-62
2023/12/24 04:09:31;;;;;;;4.47;2.73;;;;;;;-0.67;88.30;98901.97;4995327;28;20214;-64
2023/12/24 04:11:59;;;;;;;4.03;2.33;;;;;;;-0.68;88.04;98901.13;4995094;28;20215;-61
2023/12/24 04:14:27;;;;;;;5.83;3.03;;;;;;;-0.68;88.70;98890.16;4994826;28;20200;-62
2023/12/24 04:16:55;;;;;;;7.40;2.37;;;;;;;-0.70;88.68;98895.22;4995018;28;20258;-63
2023/12/24 04:19:23;;;;;;;5.80;2.80;;;;;;;-0.70;88.78;98895.22;4993734;28;20216;-61
2023/12/24 04:21:52;;;;;;;4.10;2.47;;;;;;;-0.70;89.25;98897.75;4994653;28;20244;-60
2023/12/24 04:24:22;;;;;;;7.00;2.40;;;;;;;-0.69;89.35;98899.44;4994678;28;20215;-62
2023/12/24 04:26:50;;;;;;;6.33;2.47;;;;;;;-0.70;89.54;98902.81;4995043;28;20682;-61
2023/12/24 04:29:18;;;;;;;6.63;2.67;;;;;;;-0.71;89.71;98901.06;4994447;28;20200;-61
2023/12/24 04:31:46;;;;;;;8.33;3.07;;;;;;;-0.71;89.46;98911.19;4994728;28;20212;-62
2023/12/24 04:34:14;;;;;;;3.07;2.10;;;;;;;-0.69;89.34;98908.69;4986798;28;20212;-62
2023/12/24 04:36:42;;;;;;;4.07;2.53;;;;;;;-0.68;89.50;98913.78;4993989;28;20227;-62
2023/12/24 04:39:11;;;;;;;3.43;2.13;;;;;;;-0.70;89.51;98917.97;4993609;28;20232;-63
2023/12/24 04:41:39;;;;;;;5.87;2.40;;;;;;;-0.70;89.47;98919.63;4994664;28;20557;-63
2023/12/24 04:44:07;;;;;;;4.73;2.33;;;;;;;-0.69;89.06;98914.59;4994672;28;20870;-61
2023/12/24 04:46:41;;;;;;;4.37;2.43;;;;;;;-0.68;89.14;98915.44;4994276;28;20219;-62
2023/12/24 04:49:09;;;;;;;7.10;2.17;;;;;;;-0.68;89.20;98915.44;4994663;28;20215;-62
2023/12/24 04:51:37;;;;;;;5.30;2.20;;;;;;;-0.68;89.12;98931.47;4992863;28;20200;-63
2023/12/24 04:54:05;;;;;;;4.30;1.93;;;;;;;-0.68;88.93;98926.41;4994678;28;20590;-63
2023/12/24 04:56:34;;;;;;;6.57;2.87;;;;;;;-0.68;89.15;98926.41;4994592;28;20204;-62
2023/12/24 04:59:02;;;;;;;7.47;2.50;;;;;;;-0.67;89.03;98935.69;4994054;28;20263;-62
2023/12/24 05:01:30;;;;;;;4.17;2.23;;;;;;;-0.65;88.98;98935.75;4994044;28;20215;-61
2023/12/24 05:03:58;;;;;;;5.30;1.80;;;;;;;-0.65;88.88;98931.53;4994128;28;20256;-61
2023/12/24 05:06:28;;;;;;;5.80;2.17;;;;;;;-0.66;88.97;98934.00;4985310;28;20710;-62
2023/12/24 05:08:56;;;;;;;5.50;2.00;;;;;;;-0.68;88.92;98940.75;4994386;28;20729;-61
2023/12/24 05:11:24;;;;;;;5.10;1.93;;;;;;;-0.70;88.95;98939.84;4994394;28;20702;-62
2023/12/24 05:13:54;;;;;;;8.17;2.27;;;;;;;-0.70;89.19;98938.22;4992776;28;20208;-61
2023/12/24 05:16:22;;;;;;;7.03;2.77;;;;;;;-0.70;89.17;98942.38;4993759;28;20659;-62
2023/12/24 05:18:50;;;;;;;4.83;2.27;;;;;;;-0.70;88.93;98948.31;4993827;28;20649;-63
2023/12/24 05:21:21;;;;;;;3.53;2.20;;;;;;;-0.67;89.02;98950.03;4993745;28;20235;-61
2023/12/24 05:23:49;;;;;;;3.03;1.90;;;;;;;-0.69;89.10;98965.19;4993950;28;20693;-61
2023/12/24 05:26:17;;;;;;;6.87;2.40;;;;;;;-0.66;89.12;98964.38;4994053;28;20200;-62
2023/12/24 05:28:45;;;;;;;5.47;2.07;;;;;;;-0.65;89.86;98961.88;4993632;28;20204;-63
2023/12/24 05:31:14;;;;;;;6.63;2.43;;;;;;;-0.66;89.57;98962.72;4992286;28;20216;-62
2023/12/24 05:33:42;;;;;;;5.13;2.50;;;;;;;-0.65;89.11;98974.53;4993704;28;20214;-61
2023/12/24 05:36:13;;;;;;;5.73;2.20;;;;;;;-0.65;89.39;98977.06;4993311;28;20207;-65
2023/12/24 05:38:41;;;;;;;4.13;2.27;;;;;;;-0.65;89.13;98977.06;4993395;28;20254;-62
2023/12/24 05:41:10;;;;;;;5.00;1.97;;;;;;;-0.62;89.33;98983.84;4993462;28;20212;-62
2023/12/24 05:43:38;;;;;;;5.67;2.20;;;;;;;-0.64;89.17;98977.91;4993265;28;20219;-61
2023/12/24 05:46:12;;;;;;;3.13;2.60;;;;;;;-0.61;89.38;98983.03;4992053;28;20710;-60
2023/12/24 05:48:41;;;;;;;4.23;2.03;;;;;;;-0.62;89.45;98982.16;4992995;28;20687;-60
2023/12/24 05:51:10;;;;;;;5.03;2.27;;;;;;;-0.61;89.74;98983.03;4993514;28;20208;-62
2023/12/24 05:53:38;;;;;;;4.90;2.10;;;;;;;-0.61;89.81;98983.88;4993217;28;20655;-61
2023/12/24 05:56:07;;;;;;;5.63;2.40;;;;;;;-0.60;89.94;98988.09;4993180;28;20215;-64
2023/12/24 05:58:35;;;;;;;4.63;1.97;;;;;;;-0.58;89.89;98998.25;4993197;28;20711;-61
2023/12/24 06:01:03;;;;;;;7.53;2.43;;;;;;;-0.60;89.46;98990.63;4992187;28;20631;-61
2023/12/24 06:03:31;;;;;;;7.03;2.20;;;;;;;-0.58;89.38;98998.25;4993002;28;20240;-60
2023/12/24 06:06:00;;;;;;;6.00;2.10;;;;;;;-0.57;89.29;98989.81;4992881;28;20196;-60
2023/12/24 06:08:28;;;;;;;6.93;2.60;;;;;;;-0.56;89.54;98997.44;4993147;28;20590;-61
2023/12/24 06:10:56;;;;;;;3.53;2.00;;;;;;;-0.55;89.54;98993.25;4992883;28;20319;-65
2023/12/24 06:13:24;;;;;;;5.90;2.60;;;;;;;-0.56;89.45;99002.50;4991349;28;20199;-62
2023/12/24 06:15:52;;;;;;;4.07;2.60;;;;;;;-0.53;89.61;99002.53;4992882;28;20212;-60
2023/12/24 06:18:20;;;;;;;5.57;2.37;;;;;;;-0.53;89.48;99000.00;4992688;28;20227;-65
2023/12/24 06:20:48;;;;;;;3.97;2.63;;;;;;;-0.53;89.60;98997.47;4992307;28;20228;-58
2023/12/24 06:23:17;;;;;;;7.40;2.63;;;;;;;-0.53;89.17;98997.47;4992560;28;20258;-61
2023/12/24 06:25:45;;;;;;;4.53;2.70;;;;;;;-0.50;89.39;99005.13;4992451;28;20290;-61
2023/12/24 06:28:13;;;;;;;7.50;2.87;;;;;;;-0.50;89.39;99000.06;4992783;28;20582;-65
2023/12/24 06:30:41;;;;;;;5.80;2.10;;;;;;;-0.52;89.67;98996.66;4991069;28;20239;-61
2023/12/24 06:33:09;;;;;;;6.57;2.27;;;;;;;-0.48;89.51;99005.13;4992403;28;20299;-60
2023/12/24 06:35:37;;;;;;;4.90;3.27;;;;;;;-0.44;89.49;99011.97;4992489;28;20306;-63
2023/12/24 06:38:06;;;;;;;6.33;3.03;;;;;;;-0.42;89.32;99017.06;4992703;28;20567;-62
2023/12/24 06:40:36;;;;;;;5.50;2.53;;;;;;;-0.39;89.74;99019.63;4992426;28;20239;-61
2023/12/24 06:43:04;;;;;;;7.40;3.60;;;;;;;-0.39;89.51;99017.09;4992230;28;20215;-62
2023/12/24 06:45:32;;;;;;;6.10;3.20;;;;;;;-0.37;90.02;99023.03;4992214;28;20200;-59
2023/12/24 06:48:02;;;;;;;7.67;3.07;;;;;;;-0.36;89.75;99024.75;4990870;28;20656;-62
2023/12/24 06:50:31;;;;;;;9.73;4.53;;;;;;;-0.33;89.83;99027.31;4992195;28;20211;-60
2023/12/24 06:52:59;;;;;;;5.27;3.10;;;;;;;-0.30;89.98;99017.22;4992265;28;20207;-63
2023/12/24 06:55:27;;;;;;;4.97;3.20;;;;;;;-0.30;89.78;99020.59;4991862;28;20212;-61
2023/12/24 06:57:57;;;;;;;5.60;3.23;;;;;;;-0.25;90.08;99023.22;4992071;28;20206;-60
2023/12/24 07:00:25;;;;;;;7.23;3.67;;;;;;;-0.24;89.26;99024.94;4991156;28;20212;-60
2023/12/24 07:02:52;;;;;;;5.10;3.10;;;;;;;-0.21;89.66;99024.97;4986399;28;20200;-61
2023/12/24 07:05:21;;;;;;;5.33;2.93;;;;;;;-0.19;89.27;99033.44;4992417;28;20262;-62
2023/12/24 07:07:49;;;;;;;6.03;3.07;;;;;;;-0.17;89.46;99034.31;4992060;28;20260;-62
2023/12/24 07:10:17;;;;;;;5.07;3.10;;;;;;;-0.13;89.82;99038.59;4991848;28;20204;-62
2023/12/24 07:12:45;;;;;;;7.00;3.20;;;;;;;-0.12;89.44;99040.28;4992160;28;20207;-60
2023/12/24 07:15:14;;;;;;;4.57;3.03;;;;;;;-0.11;89.47;99039.47;4990201;28;20216;-61
2023/12/24 07:17:42;;;;;;;5.47;2.97;;;;;;;-0.09;89.79;99044.56;4991617;28;20367;-61
2023/12/24 07:20:12;;;;;;;5.10;3.33;;;;;;;-0.10;88.89;99051.31;4991934;28;20227;-62
2023/12/24 07:22:40;;;;;;;6.17;3.20;;;;;;;-0.09;89.51;99037.81;4991243;28;20239;-62
2023/12/24 07:25:09;;;;;;;5.73;3.40;;;;;;;-0.10;89.37;99032.72;4991708;28;20262;-61
2023/12/24 07:27:37;;;;;;;7.60;3.83;;;;;;;-0.09;89.28;99030.22;4991853;28;20266;-59
2023/12/24 07:30:06;;;;;;;6.50;3.27;;;;;;;-0.05;89.83;99033.63;4991776;28;20203;-64
2023/12/24 07:32:35;;;;;;;5.03;3.20;;;;;;;-0.03;89.52;99027.78;4991403;28;20698;-61
2023/12/24 07:35:04;;;;;;;5.60;3.87;;;;;;;0.01;89.76;99025.28;4991651;28;20196;-62
2023/12/24 07:37:31;;;;;;;5.63;4.10;;;;;;;0.02;89.19;99029.53;4991679;28;20210;-61
2023/12/24 07:39:59;;;;;;;10.20;4.17;;;;;;;0.05;89.14;99037.16;4991449;28;20234;-61
2023/12/24 07:42:27;;;;;;;5.87;3.67;;;;;;;0.08;89.22;99044.81;4991660;28;20833;-61
2023/12/24 07:44:55;;;;;;;7.50;4.27;;;;;;;0.08;89.79;99042.28;4991880;28;20250;-65
2023/12/24 07:47:23;;;;;;;11.43;4.50;;;;;;;0.10;89.08;99041.44;4990238;28;20230;-62
2023/12/24 07:49:53;;;;;;;8.07;4.67;;;;;;;0.12;89.20;99046.56;4991747;28;20208;-62
2023/12/24 07:52:20;;;;;;;9.23;5.63;;;;;;;0.12;89.14;99047.41;4991444;28;20223;-62
2023/12/24 07:54:49;;;;;;;9.53;4.83;;;;;;;0.14;89.88;99049.94;4991915;28;20663;-62
2023/12/24 07:57:17;;;;;;;11.33;5.30;;;;;;;0.17;89.56;99043.25;4990497;28;20703;-62
2023/12/24 07:59:44;;;;;;;8.33;4.73;;;;;;;0.18;89.99;99041.56;4991454;28;20263;-60
2023/12/24 08:02:12;;;;;;;7.47;5.10;;;;;;;0.16;89.40;99039.00;4991532;28;20219;-62
2023/12/24 08:04:41;;;;;;;10.40;5.13;;;;;;;0.20;89.60;99048.34;4991443;28;20207;-63
2023/12/24 08:07:10;;;;;;;9.80;5.37;;;;;;;0.24;89.62;99046.72;4991520;28;20610;-63
2023/12/24 08:09:38;;;;;;;8.53;5.47;;;;;;;0.28;89.55;99053.53;4991441;28;20219;-66
2023/12/24 08:12:06;;;;;;;8.67;5.37;;;;;;;0.32;89.71;99056.94;4991581;28;20278;-61
2023/12/24 08:14:34;;;;;;;9.90;5.50;;;;;;;0.37;89.69;99048.59;4993585;28;20204;-61
2023/12/24 08:17:02;;;;;;;8.40;5.33;;;;;;;0.41;89.48;99052.88;4995181;28;20644;-62
2023/12/24 08:19:30;;;;;;;9.40;5.40;;;;;;;0.40;89.67;99051.13;4995212;28;20208;-62
2023/12/24 08:21:58;;;;;;;11.33;5.63;;;;;;;0.47;89.57;99057.16;4994565;28;20247;-59
2023/12/24 08:24:28;;;;;;;10.80;5.37;;;;;;;0.51;90.14;99053.81;4994713;28;20294;-61
2023/12/24 08:26:56;;;;;;;9.70;4.93;;;;;;;0.56;89.66;99057.28;4990972;28;20322;-61
2023/12/24 08:29:23;;;;;;;10.00;5.33;;;;;;;0.58;89.83;99052.22;4994105;28;20204;-61
2023/12/24 08:31:51;;;;;;;12.70;5.23;;;;;;;0.61;89.47;99059.88;4993408;28;20231;-62
2023/12/24 08:34:19;;;;;;;11.80;5.40;;;;;;;0.64;88.90;99065.81;4992068;28;20721;-63
2023/12/24 08:36:47;;;;;;;8.90;5.07;;;;;;;0.70;89.05;99065.03;4993336;28;20226;-61
2023/12/24 08:39:15;;;;;;;13.20;6.47;;;;;;;0.72;88.74;99073.53;4994654;28;20200;-63
2023/12/24 08:41:45;;;;;;;8.53;6.23;;;;;;;0.71;88.73;99070.13;4994580;28;20597;-67
2023/12/24 08:44:13;;;;;;;10.17;5.80;;;;;;;0.73;88.54;99072.69;4994581;28;20242;-64
2023/12/24 08:46:41;;;;;;;9.53;5.10;;;;;;;0.73;88.65;99072.69;4994379;28;20206;-63
2023/12/24 08:49:09;;;;;;;13.37;6.30;;;;;;;0.71;89.38;99076.91;4994654;28;20262;-64
2023/12/24 08:51:37;;;;;;;10.43;5.90;;;;;;;0.71;89.26;99087.88;4991266;28;20291;-63
2023/12/24 08:54:05;;;;;;;10.90;6.10;;;;;;;0.73;89.91;99088.75;4994631;28;20572;-62
2023/12/24 08:56:34;;;;;;;16.07;6.73;;;;;;;0.75;89.24;99087.94;4994501;28;20730;-61
2023/12/24 08:59:04;;;;;;;12.20;6.20;;;;;;;0.76;89.66;99089.63;4994511;28;20567;-61
2023/12/24 09:01:40;;;;;;;12.40;6.07;;;;;;;0.79;89.67;99090.50;4994491;28;20576;-62
2023/12/24 09:04:08;;;;;;;13.03;5.83;;;;;;;0.80;89.56;99087.13;4986465;28;20282;-62
2023/12/24 09:06:37;;;;;;;10.70;6.10;;;;;;;0.83;89.62;99083.78;4992640;28;20208;-62
2023/12/24 09:09:05;;;;;;;16.33;6.37;;;;;;;0.85;89.22;99079.59;4992811;28;20196;-69
2023/12/24 09:11:33;;;;;;;13.33;6.53;;;;;;;0.85;89.71;99079.59;4994518;28;20803;-66
2023/12/24 09:14:03;;;;;;;9.57;5.87;;;;;;;0.87;89.08;99068.63;4994018;28;20215;-59
2023/12/24 09:16:32;;;;;;;9.87;5.73;;;;;;;0.92;89.66;99056.00;4992555;28;20286;-61
2023/12/24 09:19:00;;;;;;;12.30;6.00;;;;;;;1.00;89.66;99056.94;4994088;28;20685;-62
2023/12/24 09:21:28;;;;;;;13.13;5.97;;;;;;;1.05;89.67;99057.00;4993789;28;20690;-62
2023/12/24 09:23:58;;;;;;;13.67;6.63;;;;;;;1.12;89.45;99068.91;4992991;28;20266;-59
2023/12/24 09:26:26;;;;;;;9.63;6.53;;;;;;;1.17;89.65;99065.56;4992172;28;20212;-61
2023/12/24 09:28:54;;;;;;;10.47;5.97;;;;;;;1.22;88.77;99052.09;4993549;28;20208;-65
2023/12/24 09:31:22;;;;;;;10.67;6.57;;;;;;;1.28;88.80;99050.44;4993826;28;20283;-61
2023/12/24 09:33:52;;;;;;;10.80;6.53;;;;;;;1.32;87.84;99057.25;4993919;28;20658;-62
2023/12/24 09:36:20;;;;;;;11.33;6.10;;;;;;;1.33;88.06;99056.44;4993288;28;20216;-62
2023/12/24 09:38:48;;;;;;;10.40;6.17;;;;;;;1.34;88.54;99058.13;4994148;28;20211;-62
2023/12/24 09:41:19;;;;;;;13.27;7.07;;;;;;;1.36;87.71;99055.59;4991806;28;20722;-61
2023/12/24 09:43:47;;;;;;;13.73;6.67;;;;;;;1.37;87.71;99053.09;4993845;28;20220;-60
2023/12/24 09:46:15;;;;;;;12.47;6.40;;;;;;;1.38;87.90;99047.16;4993322;28;20295;-62
2023/12/24 09:48:43;;;;;;;11.00;6.30;;;;;;;1.41;88.75;99038.75;4992051;28;20666;-61
2023/12/24 09:51:12;;;;;;;9.07;6.03;;;;;;;1.45;88.01;99038.78;4991814;28;20244;-62
2023/12/24 09:53:45;;;;;;;11.43;6.27;;;;;;;1.44;87.94;99036.25;4993050;28;20262;-63
2023/12/24 09:56:12;;;;;;;11.90;6.37;;;;;;;1.47;88.66;99032.84;4993046;28;20203;-61
2023/12/24 09:58:41;;;;;;;10.07;5.87;;;;;;;1.47;88.32;99036.25;4993239;28;20212;-63
2023/12/24 10:01:09;;;;;;;13.97;6.83;;;;;;;1.47;87.61;99025.25;4992897;28;20271;-63
2023/12/24 10:03:38;;;;;;;12.00;6.73;;;;;;;1.47;87.42;99031.16;4993219;28;20211;-62
2023/12/24 10:06:08;;;;;;;12.30;7.27;;;;;;;1.47;87.46;99035.41;4993088;28;20206;-61
2023/12/24 10:08:38;;;;;;;12.60;6.13;;;;;;;1.42;88.22;99038.75;4993161;28;20582;-61
2023/12/24 10:11:13;;;;;;;15.20;7.03;;;;;;;1.40;88.26;99035.38;4991579;28;20291;-60
2023/12/24 10:13:42;;;;;;;10.27;6.63;;;;;;;1.43;88.39;99035.38;4993043;28;20546;-61
2023/12/24 10:16:10;;;;;;;10.67;6.87;;;;;;;1.45;88.60;99033.69;4991445;28;20207;-61
2023/12/24 10:18:49;;;;;;;10.43;6.10;;;;;;;1.49;88.77;99028.66;4992688;28;20209;-60
2023/12/24 10:21:18;;;;;;;10.27;6.53;;;;;;;1.52;89.06;99021.06;4980183;28;20245;-62
2023/12/24 10:23:48;;;;;;;14.23;7.77;;;;;;;1.54;88.96;99022.75;4984853;28;20262;-62
2023/12/24 10:26:16;;;;;;;11.97;7.13;;;;;;;1.56;88.56;99021.09;4992824;28;20206;-60
2023/12/24 10:28:48;;;;;;;12.90;7.37;;;;;;;1.56;88.08;99025.34;4992486;28;20296;-64
2023/12/24 10:31:25;;;;;;;11.87;7.33;;;;;;;1.51;87.69;99034.56;4990040;28;20655;-61
2023/12/24 10:33:59;;;;;;;13.13;8.00;;;;;;;1.51;88.19;99034.56;4992627;28;20204;-63
2023/12/24 10:36:27;;;;;;;11.67;7.80;;;;;;;1.51;88.55;99032.03;4990849;28;20235;-62
2023/12/24 10:38:56;;;;;;;13.00;8.23;;;;;;;1.52;89.08;99023.59;4991109;28;20208;-61
2023/12/24 10:41:24;;;;;;;11.83;8.47;;;;;;;1.50;87.75;99027.81;4992220;28;20231;-62
2023/12/24 10:43:52;;;;;;;12.20;7.77;;;;;;;1.47;88.32;99012.56;4992709;28;20694;-63
2023/12/24 10:46:20;;;;;;;12.93;7.87;;;;;;;1.52;89.06;99003.31;4992496;28;20200;-61
2023/12/24 10:48:49;;;;;;;12.67;8.10;;;;;;;1.53;88.07;98999.91;4992595;28;20208;-61
2023/12/24 10:51:17;;;;;;;14.07;8.10;;;;;;;1.54;88.38;98997.38;4992344;28;20211;-62
2023/12/24 10:53:46;;;;;;;11.80;8.37;;;;;;;1.56;88.02;98995.72;4990520;28;20207;-61
2023/12/24 10:56:21;;;;;;;14.43;8.03;;;;;;;1.56;88.08;98994.88;4992226;28;20294;-60
2023/12/24 10:58:58;;;;;;;13.77;8.00;;;;;;;1.56;88.18;98994.88;4992093;28;20246;-62
2023/12/24 11:01:26;;;;;;;12.73;7.63;;;;;;;1.56;88.79;98989.78;4992358;28;20219;-63
2023/12/24 11:03:54;;;;;;;13.40;8.53;;;;;;;1.61;87.81;98983.03;4992468;28;20634;-62
2023/12/24 11:06:45;;;;;;;13.70;7.83;;;;;;;1.63;88.32;98978.84;4992450;28;20223;-62
2023/12/24 11:09:47;;;;;;;16.90;7.87;;;;;;;1.65;88.09;98979.69;4977874;28;20655;-62
2023/12/24 11:12:32;;;;;;;13.83;8.47;;;;;;;1.63;87.96;98976.31;4992108;28;20200;-65
2023/12/24 11:15:00;;;;;;;15.33;8.07;;;;;;;1.60;87.65;98979.66;4992177;28;20612;-62
2023/12/24 11:17:50;;;;;;;11.93;8.33;;;;;;;1.58;87.25;98973.72;4990477;28;20554;-62
2023/12/24 11:20:41;;;;;;;14.80;8.03;;;;;;;1.56;87.83;98979.63;4991888;28;20731;-62
2023/12/24 11:23:13;;;;;;;15.93;8.63;;;;;;;1.53;87.56;98990.59;4990331;28;20270;-62
2023/12/24 11:25:43;;;;;;;16.27;9.23;;;;;;;1.48;88.22;98977.03;4991728;28;20212;-61
2023/12/24 11:28:14;;;;;;;13.63;8.70;;;;;;;1.49;88.93;98970.28;4992054;28;20208;-61
2023/12/24 11:31:04;;;;;;;13.03;8.80;;;;;;;1.51;88.69;98955.88;4991823;28;20278;-62
2023/12/24 11:33:46;;;;;;;14.60;8.90;;;;;;;1.53;87.76;98955.06;4991825;28;20247;-62
2023/12/24 11:36:16;;;;;;;13.20;8.57;;;;;;;1.51;87.95;98959.31;4991507;28;20282;-63
2023/12/24 11:38:45;;;;;;;12.77;7.83;;;;;;;1.48;87.41;98954.19;4989354;28;20593;-62
2023/12/24 11:41:19;;;;;;;11.00;7.73;;;;;;;1.44;87.64;98960.94;4992000;28;20200;-62
2023/12/24 11:43:59;;;;;;;12.30;8.53;;;;;;;1.44;87.28;98949.94;4991660;28;20203;-65
2023/12/24 11:46:28;;;;;;;10.93;6.83;;;;;;;1.47;87.87;98946.56;4991989;28;20208;-61